Time;durP1;ratioP1;P1;durP2;ratioP2;P2;SDS_P1;SDS_P2;PMS_P1;PMS_P2;Temp;Humidity;BMP_temperature;BMP_pressure;BME280_temperature;BME280_humidity;BME280_pressure;Samples;Min_cycle;Max_cycle;Signal;HPM_P1;HPM_P2
2024/01/11 00:00:31;;;;;;;50.05;25.50;;;;;;;;;;6246241;22;20186;-79
2024/01/11 00:02:58;;;;;;;47.63;24.63;;;;;;;;;;6246596;22;20070;-78
2024/01/11 00:05:25;;;;;;;48.20;25.13;;;;;;;;;;6245989;22;20031;-80
2024/01/11 00:07:52;;;;;;;53.60;26.83;;;;;;;;;;6244676;23;20023;-80
2024/01/11 00:10:20;;;;;;;52.90;26.17;;;;;;;;;;6245758;22;20012;-80
2024/01/11 00:12:46;;;;;;;52.65;28.05;;;;;;;;;;6246507;22;20020;-80
2024/01/11 00:15:13;;;;;;;56.45;28.42;;;;;;;;;;6244392;22;20392;-80
2024/01/11 00:17:40;;;;;;;53.90;26.98;;;;;;;;;;6246448;22;20315;-79
2024/01/11 00:20:08;;;;;;;54.92;27.58;;;;;;;;;;6245774;22;20016;-79
2024/01/11 00:22:35;;;;;;;57.40;28.77;;;;;;;;;;6246492;22;20030;-79
2024/01/11 00:25:03;;;;;;;49.70;26.27;;;;;;;;;;6246186;22;20012;-79
2024/01/11 00:27:30;;;;;;;51.28;27.63;;;;;;;;;;6246062;22;20024;-79
2024/01/11 00:29:57;;;;;;;50.47;26.67;;;;;;;;;;6246178;22;20016;-79
2024/01/11 00:32:24;;;;;;;56.17;27.23;;;;;;;;;;6245738;22;20031;-79
2024/01/11 00:34:51;;;;;;;48.47;26.27;;;;;;;;;;6246297;22;20062;-79
2024/01/11 00:37:17;;;;;;;54.40;27.98;;;;;;;;;;6245561;22;20027;-80
2024/01/11 00:39:44;;;;;;;51.85;26.73;;;;;;;;;;6246104;22;20036;-79
2024/01/11 00:42:11;;;;;;;51.40;26.38;;;;;;;;;;6245992;22;20012;-79
2024/01/11 00:44:38;;;;;;;53.03;25.08;;;;;;;;;;6245868;22;20019;-80
2024/01/11 00:47:05;;;;;;;56.58;27.33;;;;;;;;;;6245598;22;20056;-79
2024/01/11 00:49:32;;;;;;;52.30;26.30;;;;;;;;;;6246211;22;20013;-79
2024/01/11 00:51:58;;;;;;;51.42;27.38;;;;;;;;;;6244498;23;20035;-79
2024/01/11 00:54:25;;;;;;;52.30;27.02;;;;;;;;;;6245312;22;20017;-78
2024/01/11 00:56:52;;;;;;;52.90;27.38;;;;;;;;;;6246017;22;20437;-80
2024/01/11 00:59:18;;;;;;;54.42;28.20;;;;;;;;;;6245439;22;20012;-80
2024/01/11 01:01:48;;;;;;;57.38;29.25;;;;;;;;;;6245881;22;20303;-80
2024/01/11 01:04:15;;;;;;;51.63;28.30;;;;;;;;;;6245177;22;20330;-80
2024/01/11 01:06:43;;;;;;;53.88;27.58;;;;;;;;;;6245518;22;20643;-79
2024/01/11 01:09:10;;;;;;;53.45;27.55;;;;;;;;;;6245310;22;20429;-78
2024/01/11 01:11:37;;;;;;;54.05;27.65;;;;;;;;;;6245836;22;20020;-79
2024/01/11 01:14:04;;;;;;;56.60;28.40;;;;;;;;;;6245882;22;20012;-80
2024/01/11 01:16:31;;;;;;;51.22;26.77;;;;;;;;;;6245673;22;20448;-79
2024/01/11 01:18:58;;;;;;;58.90;29.08;;;;;;;;;;6246068;22;20052;-79
2024/01/11 01:21:25;;;;;;;50.88;26.08;;;;;;;;;;6249301;22;20016;-79
2024/01/11 01:23:52;;;;;;;51.63;27.90;;;;;;;;;;6253865;22;20020;-78
2024/01/11 01:26:19;;;;;;;52.72;26.58;;;;;;;;;;6270560;22;20026;-78
2024/01/11 01:28:46;;;;;;;51.47;26.48;;;;;;;;;;6271493;22;20020;-78
2024/01/11 01:31:14;;;;;;;54.20;27.25;;;;;;;;;;6254923;22;20488;-80
2024/01/11 01:33:40;;;;;;;51.90;27.75;;;;;;;;;;6245775;22;20036;-78
2024/01/11 01:36:09;;;;;;;53.25;27.55;;;;;;;;;;6245042;22;20015;-79
2024/01/11 01:38:36;;;;;;;50.10;25.98;;;;;;;;;;6245510;22;20437;-79
2024/01/11 01:41:03;;;;;;;53.63;26.77;;;;;;;;;;6245888;22;20039;-79
2024/01/11 01:43:30;;;;;;;55.75;26.50;;;;;;;;;;6245508;22;20017;-79
2024/01/11 01:45:57;;;;;;;52.85;28.15;;;;;;;;;;6245443;22;20031;-78
2024/01/11 01:48:24;;;;;;;49.60;26.80;;;;;;;;;;6245113;22;20024;-79
2024/01/11 01:50:51;;;;;;;50.05;24.90;;;;;;;;;;6245505;22;20445;-78
2024/01/11 01:53:22;;;;;;;50.58;25.15;;;;;;;;;;6244991;22;20012;-79
2024/01/11 01:55:52;;;;;;;54.42;25.40;;;;;;;;;;6245414;22;20024;-79
2024/01/11 01:58:20;;;;;;;49.67;25.20;;;;;;;;;;6245033;22;20012;-78
2024/01/11 02:00:50;;;;;;;51.63;26.80;;;;;;;;;;6245569;22;20012;-80
2024/01/11 02:03:17;;;;;;;51.90;26.92;;;;;;;;;;6244999;22;20008;-79
2024/01/11 02:05:44;;;;;;;49.78;24.83;;;;;;;;;;6245489;22;20012;-80
2024/01/11 02:08:17;;;;;;;51.22;25.08;;;;;;;;;;6245028;22;20070;-79
2024/01/11 02:10:45;;;;;;;49.38;25.30;;;;;;;;;;6245570;22;20016;-79
2024/01/11 02:13:13;;;;;;;51.90;26.98;;;;;;;;;;6244961;22;20019;-80
2024/01/11 02:15:40;;;;;;;50.15;26.65;;;;;;;;;;6246560;22;20372;-79
2024/01/11 02:18:07;;;;;;;43.35;24.52;;;;;;;;;;6247082;22;20016;-79
2024/01/11 02:20:34;;;;;;;45.97;24.50;;;;;;;;;;6247574;22;20022;-79
2024/01/11 02:23:08;;;;;;;50.15;25.52;;;;;;;;;;6247540;22;20020;-79
2024/01/11 02:25:34;;;;;;;49.75;25.77;;;;;;;;;;6247070;22;20437;-79
2024/01/11 02:28:01;;;;;;;49.90;25.70;;;;;;;;;;6247645;22;20016;-79
2024/01/11 02:30:28;;;;;;;52.67;26.92;;;;;;;;;;6246721;22;20024;-79
2024/01/11 02:32:55;;;;;;;52.75;26.52;;;;;;;;;;6247364;22;20325;-79
2024/01/11 02:35:24;;;;;;;49.50;25.63;;;;;;;;;;6246632;22;20368;-80
2024/01/11 02:37:51;;;;;;;57.50;28.27;;;;;;;;;;6247278;22;20091;-79
2024/01/11 02:40:19;;;;;;;56.45;26.52;;;;;;;;;;6246631;22;20087;-79
2024/01/11 02:42:46;;;;;;;51.95;26.50;;;;;;;;;;6247575;22;20326;-79
2024/01/11 02:45:12;;;;;;;48.30;24.10;;;;;;;;;;6246254;22;20074;-79
2024/01/11 02:47:39;;;;;;;50.25;24.48;;;;;;;;;;6247412;22;20066;-78
2024/01/11 02:50:07;;;;;;;51.38;25.23;;;;;;;;;;6246659;22;20372;-78
2024/01/11 02:52:34;;;;;;;44.53;23.83;;;;;;;;;;6247296;22;20023;-79
2024/01/11 02:55:01;;;;;;;49.70;24.95;;;;;;;;;;6245365;23;20438;-79
2024/01/11 02:57:28;;;;;;;44.63;23.55;;;;;;;;;;6246562;22;20024;-78
2024/01/11 02:59:55;;;;;;;50.83;23.58;;;;;;;;;;6247138;22;20059;-78
2024/01/11 03:02:22;;;;;;;47.60;23.90;;;;;;;;;;6246371;22;20027;-77
2024/01/11 03:04:49;;;;;;;41.90;23.10;;;;;;;;;;6247224;22;20026;-79
2024/01/11 03:07:16;;;;;;;45.70;23.25;;;;;;;;;;6246492;22;20012;-78
2024/01/11 03:09:42;;;;;;;50.85;24.85;;;;;;;;;;6246880;22;20020;-79
2024/01/11 03:12:09;;;;;;;45.13;23.17;;;;;;;;;;6246570;22;20360;-78
2024/01/11 03:14:35;;;;;;;46.40;23.25;;;;;;;;;;6246935;22;20020;-79
2024/01/11 03:17:03;;;;;;;47.33;24.95;;;;;;;;;;6246804;22;20021;-79
2024/01/11 03:19:29;;;;;;;43.78;22.85;;;;;;;;;;6246654;22;20027;-78
2024/01/11 03:21:56;;;;;;;47.08;23.90;;;;;;;;;;6246696;22;20081;-78
2024/01/11 03:24:23;;;;;;;46.35;22.42;;;;;;;;;;6246365;22;20016;-78
2024/01/11 03:26:50;;;;;;;47.33;23.45;;;;;;;;;;6246196;22;20063;-79
2024/01/11 03:29:16;;;;;;;42.65;22.38;;;;;;;;;;6246239;22;20023;-78
2024/01/11 03:31:44;;;;;;;42.10;22.42;;;;;;;;;;6246733;22;20016;-78
2024/01/11 03:34:12;;;;;;;45.22;23.00;;;;;;;;;;6246202;22;20310;-77
2024/01/11 03:36:39;;;;;;;44.95;23.08;;;;;;;;;;6246784;22;20021;-78
2024/01/11 03:39:06;;;;;;;45.55;23.05;;;;;;;;;;6244541;22;20425;-78
2024/01/11 03:41:33;;;;;;;43.42;23.08;;;;;;;;;;6246836;22;20012;-78
2024/01/11 03:44:00;;;;;;;44.80;21.60;;;;;;;;;;6246616;22;20020;-79
2024/01/11 03:46:27;;;;;;;42.80;23.20;;;;;;;;;;6246078;22;20081;-77
2024/01/11 03:48:55;;;;;;;42.88;22.45;;;;;;;;;;6246797;22;20369;-78
2024/01/11 03:51:22;;;;;;;40.40;21.65;;;;;;;;;;6246096;22;20019;-77
2024/01/11 03:53:49;;;;;;;44.20;23.20;;;;;;;;;;6245139;23;20372;-78
2024/01/11 03:56:16;;;;;;;41.60;21.42;;;;;;;;;;6245894;22;20095;-78
2024/01/11 03:58:44;;;;;;;41.33;21.75;;;;;;;;;;6246700;22;20020;-78
2024/01/11 04:01:11;;;;;;;47.15;23.30;;;;;;;;;;6246226;22;20062;-78
2024/01/11 04:03:38;;;;;;;38.55;21.25;;;;;;;;;;6246508;22;20016;-78
2024/01/11 04:06:06;;;;;;;42.40;21.65;;;;;;;;;;6246052;22;20016;-78
2024/01/11 04:08:33;;;;;;;39.42;22.13;;;;;;;;;;6246488;22;20046;-78
2024/01/11 04:11:06;;;;;;;45.03;22.95;;;;;;;;;;6246464;22;20027;-77
2024/01/11 04:13:33;;;;;;;40.80;21.58;;;;;;;;;;6245999;22;20012;-78
2024/01/11 04:16:04;;;;;;;45.75;23.05;;;;;;;;;;6270111;22;20017;-78
2024/01/11 04:18:31;;;;;;;38.63;21.60;;;;;;;;;;6246098;22;20035;-78
2024/01/11 04:20:58;;;;;;;46.40;23.20;;;;;;;;;;6246170;22;20333;-78
2024/01/11 04:23:25;;;;;;;42.60;21.80;;;;;;;;;;6245848;22;20091;-78
2024/01/11 04:25:52;;;;;;;43.10;22.40;;;;;;;;;;6246227;22;20022;-78
2024/01/11 04:28:19;;;;;;;41.88;22.63;;;;;;;;;;6245682;22;20329;-78
2024/01/11 04:30:45;;;;;;;45.28;21.50;;;;;;;;;;6246138;22;20020;-78
2024/01/11 04:33:12;;;;;;;42.38;21.75;;;;;;;;;;6245701;22;20090;-78
2024/01/11 04:35:39;;;;;;;46.00;22.63;;;;;;;;;;6246047;22;20034;-78
2024/01/11 04:38:06;;;;;;;43.08;21.70;;;;;;;;;;6245442;22;20018;-77
2024/01/11 04:40:33;;;;;;;42.40;21.80;;;;;;;;;;6246140;22;20015;-78
2024/01/11 04:42:59;;;;;;;41.90;22.48;;;;;;;;;;6246346;22;20019;-78
2024/01/11 04:45:26;;;;;;;40.67;21.13;;;;;;;;;;6245469;22;20035;-77
2024/01/11 04:47:53;;;;;;;44.78;22.40;;;;;;;;;;6246113;22;20517;-78
2024/01/11 04:50:20;;;;;;;39.33;21.85;;;;;;;;;;6245346;22;20022;-78
2024/01/11 04:52:48;;;;;;;43.28;21.75;;;;;;;;;;6246096;22;20326;-78
2024/01/11 04:55:15;;;;;;;45.42;22.17;;;;;;;;;;6245531;22;20018;-78
2024/01/11 04:57:41;;;;;;;41.50;21.55;;;;;;;;;;6245849;22;20025;-78
2024/01/11 05:00:08;;;;;;;40.38;21.35;;;;;;;;;;6245454;22;20338;-78
2024/01/11 05:02:35;;;;;;;38.63;21.08;;;;;;;;;;6245864;22;20507;-78
2024/01/11 05:05:02;;;;;;;44.42;22.48;;;;;;;;;;6246052;22;20008;-78
2024/01/11 05:07:29;;;;;;;47.40;23.48;;;;;;;;;;6245412;22;20042;-78
2024/01/11 05:09:56;;;;;;;44.50;22.48;;;;;;;;;;6245864;22;20374;-78
2024/01/11 05:12:23;;;;;;;47.78;23.33;;;;;;;;;;6245228;22;20016;-77
2024/01/11 05:14:49;;;;;;;47.13;23.90;;;;;;;;;;6245808;22;20016;-78
2024/01/11 05:17:16;;;;;;;46.90;23.15;;;;;;;;;;6245087;22;20023;-78
2024/01/11 05:19:43;;;;;;;48.95;23.38;;;;;;;;;;6245859;22;20038;-78
2024/01/11 05:22:10;;;;;;;49.20;23.92;;;;;;;;;;6243686;22;20016;-78
2024/01/11 05:24:36;;;;;;;45.70;23.25;;;;;;;;;;6244238;23;20017;-77
2024/01/11 05:27:03;;;;;;;50.53;23.80;;;;;;;;;;6245096;22;20012;-78
2024/01/11 05:29:31;;;;;;;45.83;23.33;;;;;;;;;;6245873;22;20018;-78
2024/01/11 05:31:58;;;;;;;52.03;23.50;;;;;;;;;;6245743;22;20020;-78
2024/01/11 05:34:25;;;;;;;47.78;24.52;;;;;;;;;;6245089;22;20012;-79
2024/01/11 05:36:52;;;;;;;49.50;24.00;;;;;;;;;;6245792;22;20024;-78
2024/01/11 05:39:19;;;;;;;49.67;24.67;;;;;;;;;;6245071;22;20016;-77
2024/01/11 05:41:45;;;;;;;50.97;24.20;;;;;;;;;;6245849;22;20012;-79
2024/01/11 05:44:12;;;;;;;52.63;24.70;;;;;;;;;;6245526;22;20027;-78
2024/01/11 05:46:39;;;;;;;48.00;24.55;;;;;;;;;;6249696;22;20047;-77
2024/01/11 05:49:08;;;;;;;45.13;24.42;;;;;;;;;;6253307;22;20024;-78
2024/01/11 05:51:34;;;;;;;46.80;23.95;;;;;;;;;;6268193;22;20376;-77
2024/01/11 05:54:02;;;;;;;49.63;25.70;;;;;;;;;;6268993;22;20016;-79
2024/01/11 05:56:28;;;;;;;52.70;24.98;;;;;;;;;;6259469;22;20023;-78
2024/01/11 05:58:55;;;;;;;53.38;25.00;;;;;;;;;;6246078;22;20083;-84
2024/01/11 06:01:22;;;;;;;46.50;23.75;;;;;;;;;;6243794;22;20326;-78
2024/01/11 06:03:49;;;;;;;49.75;24.35;;;;;;;;;;6245453;22;20020;-78
2024/01/11 06:06:15;;;;;;;44.38;22.73;;;;;;;;;;6245055;22;20091;-78
2024/01/11 06:08:43;;;;;;;48.92;24.52;;;;;;;;;;6245296;22;20063;-79
2024/01/11 06:11:10;;;;;;;48.53;25.00;;;;;;;;;;6242642;22;20036;-79
2024/01/11 06:13:39;;;;;;;49.95;24.00;;;;;;;;;;6245495;22;20091;-78
2024/01/11 06:16:07;;;;;;;45.25;23.73;;;;;;;;;;6244955;22;20016;-78
2024/01/11 06:18:38;;;;;;;49.58;24.92;;;;;;;;;;6245506;22;20022;-77
2024/01/11 06:21:05;;;;;;;53.25;24.73;;;;;;;;;;6244636;22;20372;-78
2024/01/11 06:23:32;;;;;;;45.22;23.73;;;;;;;;;;6245237;22;20441;-77
2024/01/11 06:25:58;;;;;;;48.55;25.05;;;;;;;;;;6245359;22;20019;-77
2024/01/11 06:28:25;;;;;;;45.80;23.58;;;;;;;;;;6244954;22;20491;-77
2024/01/11 06:30:53;;;;;;;46.80;23.52;;;;;;;;;;6245277;22;20040;-77
2024/01/11 06:33:20;;;;;;;46.90;23.80;;;;;;;;;;6243419;22;20023;-77
2024/01/11 06:35:47;;;;;;;47.72;23.45;;;;;;;;;;6245368;22;20016;-77
2024/01/11 06:38:14;;;;;;;48.35;23.10;;;;;;;;;;6244648;22;20087;-77
2024/01/11 06:40:41;;;;;;;44.78;22.52;;;;;;;;;;6245239;22;20008;-77
2024/01/11 06:43:08;;;;;;;46.88;23.52;;;;;;;;;;6244862;22;20012;-77
2024/01/11 06:45:35;;;;;;;44.35;22.73;;;;;;;;;;6244855;22;20026;-77
2024/01/11 06:48:02;;;;;;;45.78;23.88;;;;;;;;;;6262861;22;20039;-77
2024/01/11 06:50:28;;;;;;;45.47;23.35;;;;;;;;;;6241746;22;20396;-76
2024/01/11 06:52:55;;;;;;;46.58;23.33;;;;;;;;;;6268869;22;20017;-77
2024/01/11 06:55:22;;;;;;;45.75;23.33;;;;;;;;;;6244775;22;20338;-77
2024/01/11 06:57:49;;;;;;;49.17;24.05;;;;;;;;;;6245116;22;20157;-77
2024/01/11 07:00:16;;;;;;;45.42;23.77;;;;;;;;;;6244618;22;20019;-77
2024/01/11 07:02:43;;;;;;;49.50;22.95;;;;;;;;;;6247043;22;20020;-77
2024/01/11 07:05:09;;;;;;;40.90;21.58;;;;;;;;;;6246469;22;20012;-77
2024/01/11 07:07:37;;;;;;;46.92;23.50;;;;;;;;;;6247006;22;20070;-77
2024/01/11 07:10:05;;;;;;;49.05;24.75;;;;;;;;;;6245560;23;20022;-77
2024/01/11 07:12:32;;;;;;;43.58;22.42;;;;;;;;;;6246550;22;20056;-77
2024/01/11 07:14:59;;;;;;;48.60;25.25;;;;;;;;;;6246691;22;20020;-77
2024/01/11 07:17:26;;;;;;;44.25;23.10;;;;;;;;;;6246121;22;20091;-77
2024/01/11 07:19:53;;;;;;;46.75;23.98;;;;;;;;;;6246792;22;20054;-77
2024/01/11 07:22:20;;;;;;;47.85;23.92;;;;;;;;;;6246098;22;20031;-77
2024/01/11 07:24:46;;;;;;;47.13;24.95;;;;;;;;;;6246791;22;20016;-77
2024/01/11 07:27:13;;;;;;;46.90;25.23;;;;;;;;;;6246174;22;20035;-77
2024/01/11 07:29:41;;;;;;;46.40;23.80;;;;;;;;;;6247495;22;20028;-77
2024/01/11 07:32:08;;;;;;;47.60;25.00;;;;;;;;;;6246504;22;20437;-77
2024/01/11 07:34:36;;;;;;;49.20;24.17;;;;;;;;;;6247299;22;20008;-77
2024/01/11 07:37:03;;;;;;;50.72;25.33;;;;;;;;;;6246035;22;20019;-77
2024/01/11 07:39:30;;;;;;;47.88;23.60;;;;;;;;;;6246610;22;20016;-77
2024/01/11 07:41:57;;;;;;;49.33;24.38;;;;;;;;;;6246677;22;20024;-77
2024/01/11 07:44:24;;;;;;;50.53;25.33;;;;;;;;;;6267043;22;20032;-76
2024/01/11 07:46:51;;;;;;;51.05;25.13;;;;;;;;;;6246748;22;20016;-76
2024/01/11 07:49:21;;;;;;;54.65;26.83;;;;;;;;;;6245694;22;20433;-76
2024/01/11 07:51:48;;;;;;;53.75;25.27;;;;;;;;;;6244669;22;20325;-77
2024/01/11 07:54:16;;;;;;;47.97;24.67;;;;;;;;;;6246211;22;20016;-77
2024/01/11 07:56:42;;;;;;;49.78;25.27;;;;;;;;;;6269487;22;20091;-77
2024/01/11 07:59:14;;;;;;;50.75;26.70;;;;;;;;;;6243956;22;20016;-77
2024/01/11 08:01:41;;;;;;;48.33;24.63;;;;;;;;;;6245752;22;20464;-77
2024/01/11 08:04:08;;;;;;;53.17;25.45;;;;;;;;;;6245949;22;20019;-77
2024/01/11 08:06:35;;;;;;;57.55;26.23;;;;;;;;;;6246421;22;20028;-76
2024/01/11 08:09:04;;;;;;;47.17;24.67;;;;;;;;;;6246453;22;20012;-76
2024/01/11 08:11:32;;;;;;;;;;;;;;;;;;6246453;22;20329;-77
2024/01/11 08:14:05;;;;;;;51.42;24.80;;;;;;;;;;6246092;22;19965;-76
2024/01/11 08:16:32;;;;;;;49.67;24.70;;;;;;;;;;6245982;22;20020;-77
2024/01/11 08:19:00;;;;;;;50.80;26.95;;;;;;;;;;6246441;22;20074;-77
2024/01/11 08:21:28;;;;;;;51.10;26.00;;;;;;;;;;6245740;22;20016;-77
2024/01/11 08:23:55;;;;;;;50.60;25.30;;;;;;;;;;6246083;22;20016;-76
2024/01/11 08:26:29;;;;;;;57.25;27.98;;;;;;;;;;6245724;22;20020;-77
2024/01/11 08:28:56;;;;;;;54.53;26.52;;;;;;;;;;6246179;22;20016;-77
2024/01/11 08:31:24;;;;;;;45.67;23.83;;;;;;;;;;6245385;22;20066;-76
2024/01/11 08:33:50;;;;;;;52.97;25.67;;;;;;;;;;6245960;22;20087;-76
2024/01/11 08:36:17;;;;;;;50.40;25.27;;;;;;;;;;6245801;22;20074;-77
2024/01/11 08:38:44;;;;;;;51.58;24.88;;;;;;;;;;6244596;23;20092;-76
2024/01/11 08:41:11;;;;;;;49.78;25.35;;;;;;;;;;6243962;22;20012;-77
2024/01/11 08:43:39;;;;;;;55.15;27.13;;;;;;;;;;6244589;23;20083;-76
2024/01/11 08:46:06;;;;;;;51.13;26.05;;;;;;;;;;6245357;22;20429;-77
2024/01/11 08:48:32;;;;;;;56.95;26.05;;;;;;;;;;6244204;23;20042;-77
2024/01/11 08:51:00;;;;;;;52.20;25.00;;;;;;;;;;6246170;22;20023;-77
2024/01/11 08:53:26;;;;;;;48.58;24.88;;;;;;;;;;6245393;22;20029;-77
2024/01/11 08:55:53;;;;;;;57.22;25.85;;;;;;;;;;6234174;23;20444;-77
2024/01/11 08:58:20;;;;;;;48.15;23.98;;;;;;;;;;6244441;22;20022;-77
2024/01/11 09:00:47;;;;;;;51.00;25.50;;;;;;;;;;6245768;22;20069;-77
2024/01/11 09:03:15;;;;;;;50.70;25.63;;;;;;;;;;6268105;22;20047;-77
2024/01/11 09:05:42;;;;;;;52.83;25.20;;;;;;;;;;6244126;22;20096;-76
2024/01/11 09:08:09;;;;;;;55.83;26.15;;;;;;;;;;6247815;22;20066;-78
2024/01/11 09:10:36;;;;;;;49.95;26.17;;;;;;;;;;6247426;22;20499;-77
2024/01/11 09:13:03;;;;;;;46.28;23.35;;;;;;;;;;6245481;22;20040;-78
2024/01/11 09:15:30;;;;;;;48.10;25.13;;;;;;;;;;6245433;22;20020;-77
2024/01/11 09:17:56;;;;;;;49.95;25.77;;;;;;;;;;6245694;22;20329;-77
2024/01/11 09:20:23;;;;;;;47.08;25.45;;;;;;;;;;6245094;22;20016;-78
2024/01/11 09:22:50;;;;;;;49.05;25.45;;;;;;;;;;6245739;22;20026;-77
2024/01/11 09:25:17;;;;;;;48.92;25.85;;;;;;;;;;6245142;22;20012;-77
2024/01/11 09:27:44;;;;;;;46.85;25.33;;;;;;;;;;6245653;22;20023;-78
2024/01/11 09:30:11;;;;;;;50.13;24.02;;;;;;;;;;6245312;22;20013;-77
2024/01/11 09:32:37;;;;;;;50.70;24.65;;;;;;;;;;6245787;22;20035;-77
2024/01/11 09:35:05;;;;;;;47.25;23.65;;;;;;;;;;6245077;22;20012;-78
2024/01/11 09:37:32;;;;;;;45.35;24.75;;;;;;;;;;6245733;22;20016;-78
2024/01/11 09:40:00;;;;;;;54.05;25.65;;;;;;;;;;6245627;22;20026;-78
2024/01/11 09:42:28;;;;;;;51.28;23.63;;;;;;;;;;6245063;22;20020;-77
2024/01/11 09:44:56;;;;;;;49.42;24.55;;;;;;;;;;6245577;22;20020;-78
2024/01/11 09:47:24;;;;;;;49.08;24.90;;;;;;;;;;6245135;22;20016;-77
2024/01/11 09:49:54;;;;;;;43.05;23.63;;;;;;;;;;6245660;22;20011;-77
2024/01/11 09:52:22;;;;;;;45.13;23.30;;;;;;;;;;6245299;22;20095;-78
2024/01/11 09:54:49;;;;;;;42.17;23.20;;;;;;;;;;6246236;22;20020;-78
2024/01/11 09:57:25;;;;;;;47.08;24.95;;;;;;;;;;6247497;22;20071;-77
2024/01/11 09:59:55;;;;;;;47.08;26.17;;;;;;;;;;6257186;22;20024;-80
2024/01/11 10:02:29;;;;;;;52.75;25.55;;;;;;;;;;6271997;22;19997;-78
2024/01/11 10:04:56;;;;;;;49.08;27.23;;;;;;;;;;6271469;22;20020;-77
2024/01/11 10:07:24;;;;;;;47.05;24.88;;;;;;;;;;6249219;22;24649;-78
2024/01/11 10:09:53;;;;;;;43.38;23.88;;;;;;;;;;6245731;22;20015;-78
2024/01/11 10:12:24;;;;;;;44.65;24.25;;;;;;;;;;6245132;22;20023;-79
2024/01/11 10:14:52;;;;;;;41.85;23.00;;;;;;;;;;6245674;22;20016;-77
2024/01/11 10:17:19;;;;;;;41.03;23.48;;;;;;;;;;6245094;22;20066;-78
2024/01/11 10:19:53;;;;;;;47.20;22.55;;;;;;;;;;6245448;22;20020;-78
2024/01/11 10:22:20;;;;;;;43.47;23.77;;;;;;;;;;6244945;22;20016;-78
2024/01/11 10:24:50;;;;;;;40.20;22.70;;;;;;;;;;6245388;22;20095;-78
2024/01/11 10:27:17;;;;;;;44.60;23.33;;;;;;;;;;6244822;22;20016;-78
2024/01/11 10:29:45;;;;;;;42.10;23.13;;;;;;;;;;6245288;22;20429;-78
2024/01/11 10:32:11;;;;;;;40.40;21.55;;;;;;;;;;6244960;22;20008;-78
2024/01/11 10:34:41;;;;;;;37.67;21.80;;;;;;;;;;6245612;22;20048;-78
2024/01/11 10:37:10;;;;;;;42.22;22.08;;;;;;;;;;6246332;22;20016;-78
2024/01/11 10:39:38;;;;;;;39.97;22.92;;;;;;;;;;6247182;22;20036;-78
2024/01/11 10:42:07;;;;;;;44.35;21.60;;;;;;;;;;6246921;22;20016;-78
2024/01/11 10:44:35;;;;;;;41.78;22.52;;;;;;;;;;6247006;22;20027;-78
2024/01/11 10:47:06;;;;;;;36.83;21.67;;;;;;;;;;6247163;22;20008;-78
2024/01/11 10:49:33;;;;;;;44.85;23.20;;;;;;;;;;6246950;22;20487;-78
2024/01/11 10:52:04;;;;;;;40.17;22.33;;;;;;;;;;6247203;22;20078;-78
2024/01/11 10:54:34;;;;;;;39.05;21.27;;;;;;;;;;6246918;22;20337;-78
2024/01/11 10:57:01;;;;;;;42.88;21.17;;;;;;;;;;6247185;22;20023;-78
2024/01/11 10:59:30;;;;;;;37.60;20.40;;;;;;;;;;6246662;22;20030;-78
2024/01/11 11:01:58;;;;;;;37.95;22.00;;;;;;;;;;6247047;22;20070;-78
2024/01/11 11:04:25;;;;;;;40.25;21.58;;;;;;;;;;6246502;22;20435;-77
2024/01/11 11:06:58;;;;;;;39.72;20.80;;;;;;;;;;6247105;22;20047;-77
2024/01/11 11:09:27;;;;;;;35.72;22.15;;;;;;;;;;6246673;22;20016;-78
2024/01/11 11:11:57;;;;;;;38.65;21.63;;;;;;;;;;6246998;22;20020;-78
2024/01/11 11:14:24;;;;;;;38.38;21.70;;;;;;;;;;6246395;22;20024;-78
2024/01/11 11:16:52;;;;;;;36.80;21.52;;;;;;;;;;6247002;22;20506;-78
2024/01/11 11:19:22;;;;;;;42.53;23.10;;;;;;;;;;6246327;22;20024;-78
2024/01/11 11:21:50;;;;;;;47.35;25.20;;;;;;;;;;6270978;22;20071;-78
2024/01/11 11:24:18;;;;;;;48.83;25.35;;;;;;;;;;6246423;22;20024;-78
2024/01/11 11:26:45;;;;;;;44.37;24.73;;;;;;;;;;6247075;22;20341;-77
2024/01/11 11:29:15;;;;;;;40.72;22.35;;;;;;;;;;6246144;22;20258;-78
2024/01/11 11:31:45;;;;;;;37.92;21.15;;;;;;;;;;6246787;22;20083;-78
2024/01/11 11:34:13;;;;;;;38.03;21.08;;;;;;;;;;6246360;22;20020;-78
2024/01/11 11:36:43;;;;;;;37.47;21.73;;;;;;;;;;6246982;22;20039;-78
2024/01/11 11:39:13;;;;;;;32.22;19.67;;;;;;;;;;6246039;22;20027;-79
2024/01/11 11:41:42;;;;;;;35.83;20.92;;;;;;;;;;6246683;22;20027;-79
2024/01/11 11:44:12;;;;;;;35.10;20.05;;;;;;;;;;6246195;22;20441;-78
2024/01/11 11:46:39;;;;;;;36.30;20.10;;;;;;;;;;6246587;22;20020;-78
2024/01/11 11:49:06;;;;;;;34.28;20.08;;;;;;;;;;6245519;22;20030;-78
2024/01/11 11:51:35;;;;;;;34.47;19.55;;;;;;;;;;6243722;23;20024;-79
2024/01/11 11:54:02;;;;;;;36.37;19.80;;;;;;;;;;6245298;22;20031;-78
2024/01/11 11:56:30;;;;;;;35.47;19.40;;;;;;;;;;6244611;22;20541;-79
2024/01/11 11:58:57;;;;;;;32.20;19.25;;;;;;;;;;6244791;22;20051;-78
2024/01/11 12:01:24;;;;;;;32.47;19.13;;;;;;;;;;6244360;22;20024;-77
2024/01/11 12:03:52;;;;;;;31.77;18.67;;;;;;;;;;6244877;22;20096;-78
2024/01/11 12:06:22;;;;;;;34.40;18.83;;;;;;;;;;6244233;22;20036;-78
2024/01/11 12:08:52;;;;;;;34.45;19.98;;;;;;;;;;6244533;22;20062;-78
2024/01/11 12:11:21;;;;;;;30.35;18.13;;;;;;;;;;6244236;22;20020;-79
2024/01/11 12:13:49;;;;;;;;;;;;;;;;;;6245441;22;20024;-78
2024/01/11 12:16:15;;;;;;;33.28;19.05;;;;;;;;;;6244147;22;19916;-78
2024/01/11 12:18:42;;;;;;;29.17;18.73;;;;;;;;;;6244606;22;20012;-78
2024/01/11 12:21:09;;;;;;;30.05;18.40;;;;;;;;;;6244010;22;20043;-79
2024/01/11 12:23:38;;;;;;;31.23;17.67;;;;;;;;;;6244765;22;20016;-78
2024/01/11 12:26:12;;;;;;;29.92;17.75;;;;;;;;;;6243919;22;20473;-78
2024/01/11 12:28:41;;;;;;;32.42;18.50;;;;;;;;;;6244664;22;20039;-78
2024/01/11 12:31:09;;;;;;;32.53;18.73;;;;;;;;;;6244170;22;20022;-78
2024/01/11 12:33:38;;;;;;;28.80;16.55;;;;;;;;;;6244568;22;20254;-78
2024/01/11 12:36:07;;;;;;;27.63;16.42;;;;;;;;;;6242090;22;20094;-79
2024/01/11 12:38:35;;;;;;;25.63;15.70;;;;;;;;;;6243129;22;20012;-79
2024/01/11 12:41:03;;;;;;;27.35;16.98;;;;;;;;;;6243314;22;20026;-79
2024/01/11 12:43:30;;;;;;;30.08;17.25;;;;;;;;;;6244690;22;20023;-78
2024/01/11 12:45:57;;;;;;;25.98;15.88;;;;;;;;;;6245866;22;20027;-77
2024/01/11 12:48:24;;;;;;;31.17;17.55;;;;;;;;;;6245632;22;20027;-78
2024/01/11 12:50:53;;;;;;;31.58;17.35;;;;;;;;;;6246230;22;20012;-78
2024/01/11 12:53:39;;;;;;;28.02;16.55;;;;;;;;;;6245623;22;20031;-79
2024/01/11 12:56:10;;;;;;;28.52;16.05;;;;;;;;;;6245764;22;20058;-78
2024/01/11 12:58:38;;;;;;;26.63;16.95;;;;;;;;;;6245928;22;20020;-78
2024/01/11 13:01:08;;;;;;;24.92;15.10;;;;;;;;;;6245418;22;20016;-78
2024/01/11 13:03:37;;;;;;;30.35;17.13;;;;;;;;;;6245951;22;20024;-79
2024/01/11 13:06:09;;;;;;;21.75;15.60;;;;;;;;;;6245585;22;20012;-77
2024/01/11 13:08:39;;;;;;;25.73;15.10;;;;;;;;;;6245928;22;20095;-78
2024/01/11 13:11:07;;;;;;;27.58;15.10;;;;;;;;;;6245344;22;20062;-79
2024/01/11 13:13:34;;;;;;;21.90;14.88;;;;;;;;;;6246055;22;20095;-79
2024/01/11 13:16:05;;;;;;;32.95;16.20;;;;;;;;;;6245810;22;20044;-78
2024/01/11 13:18:32;;;;;;;21.23;14.40;;;;;;;;;;6245414;22;20016;-79
2024/01/11 13:20:59;;;;;;;30.42;15.95;;;;;;;;;;6245647;22;20016;-79
2024/01/11 13:23:26;;;;;;;24.13;15.07;;;;;;;;;;6245220;22;20023;-78
2024/01/11 13:25:53;;;;;;;25.92;15.90;;;;;;;;;;6245949;22;20074;-78
2024/01/11 13:28:20;;;;;;;30.02;15.13;;;;;;;;;;6245137;22;20047;-79
2024/01/11 13:30:48;;;;;;;26.52;14.73;;;;;;;;;;6246457;22;20016;-78
2024/01/11 13:33:17;;;;;;;26.05;15.40;;;;;;;;;;6245321;22;20047;-79
2024/01/11 13:35:45;;;;;;;24.05;14.82;;;;;;;;;;6244071;23;20016;-78
2024/01/11 13:38:12;;;;;;;30.83;14.90;;;;;;;;;;6245044;22;20039;-78
2024/01/11 13:40:40;;;;;;;24.45;14.32;;;;;;;;;;6245768;22;20305;-78
2024/01/11 13:43:07;;;;;;;27.25;15.25;;;;;;;;;;6245185;22;20023;-78
2024/01/11 13:45:37;;;;;;;22.98;14.10;;;;;;;;;;6245446;22;20020;-78
2024/01/11 13:48:05;;;;;;;27.42;14.98;;;;;;;;;;6245105;22;20433;-78
2024/01/11 13:50:32;;;;;;;23.25;13.95;;;;;;;;;;6245548;22;20020;-78
2024/01/11 13:53:00;;;;;;;27.77;14.65;;;;;;;;;;6245582;22;20090;-79
2024/01/11 13:55:29;;;;;;;23.33;13.82;;;;;;;;;;6244772;22;20095;-82
2024/01/11 13:57:56;;;;;;;;;;;;;;;;;;6244159;23;20040;-81
2024/01/11 14:00:23;;;;;;;23.48;13.23;;;;;;;;;;6243338;22;20272;-79
2024/01/11 14:02:49;;;;;;;26.45;13.75;;;;;;;;;;6245448;22;20515;-79
2024/01/11 14:05:17;;;;;;;24.70;13.77;;;;;;;;;;6245026;22;20361;-79
2024/01/11 14:07:45;;;;;;;24.67;14.07;;;;;;;;;;6245569;22;20372;-78
2024/01/11 14:10:14;;;;;;;21.38;13.75;;;;;;;;;;6245004;22;20017;-78
2024/01/11 14:12:41;;;;;;;22.38;13.00;;;;;;;;;;6247777;22;20472;-79
2024/01/11 14:15:12;;;;;;;26.13;12.55;;;;;;;;;;6270895;22;20315;-79
2024/01/11 14:17:40;;;;;;;22.38;13.98;;;;;;;;;;6247558;22;20027;-78
2024/01/11 14:20:12;;;;;;;26.23;14.15;;;;;;;;;;6245286;22;20032;-78